Nearby METAR Reports

 

KEWB - New Bedford, Massachusetts, USA
Distance from station: ESE 9mi, 15km
Updated: Thu, 17-Jun-2021 1:53am EDT
Clear
Clear
 Wind from calm
Wind: Calm
Temperature: 52°F , 11°C
Dew Point: 48°F , 9°C
Humidity: 88%
Barometer: 29.90 inHg , 1012.5 hPa
Clouds: Clear
Visibility: 10 miles , 16 km
2021/06/17 05:53 KEWB 170553Z AUTO 00000KT 10SM CLR 11/09 A2990 RMK AO2 SLP124 T01110089 10194 20106 50002
KTAN - Taunton, Massachusetts, USA
Distance from station: NNE 11mi, 18km
Updated: Thu, 17-Jun-2021 1:52am EDT
Clear
Clear
 Wind from calm
Wind: Calm
Temperature: 48°F , 9°C
Dew Point: 46°F , 8°C
Humidity: 94%
Barometer: 29.90 inHg , 1012.5 hPa
Clouds: Clear
Visibility: 10 miles , 16 km
2021/06/17 05:52 KTAN 170552Z AUTO 00000KT 10SM CLR 09/08 A2990 RMK AO2 SLP125 T00890078 10183 20089 51003
 
KPVD - Providence/Green, Rhode Island, USA
Distance from station: W 16mi, 26km
Updated: Thu, 17-Jun-2021 1:51am EDT
Clear
Clear
 Wind from WNW
Wind: WNW 5 mph , 7 km/h
Temperature: 59°F , 15°C
Dew Point: 45°F , 7°C
Humidity: 59%
Barometer: 29.91 inHg , 1012.9 hPa
Clouds: Clear
Visibility: 10 miles , 16 km
2021/06/17 05:51 KPVD 170551Z AUTO 29004KT 10SM CLR 15/07 A2991 RMK AO2 SLP128 T01500067 10217 20150 50002
KUUU - Newport, Rhode Island, USA
Distance from station: SSW 16mi, 27km
Updated: Thu, 17-Jun-2021 1:53am EDT
Clear
Clear
 Wind from NNW
Wind: NNW 6 mph , 9 km/h
Temperature: 57°F , 14°C
Dew Point: 46°F , 8°C
Humidity: 67%
Barometer: 29.91 inHg , 1012.9 hPa
Clouds: Clear
Visibility: 10 miles , 16 km
2021/06/17 05:53 KUUU 170553Z AUTO 33005KT 10SM CLR 14/08 A2991 RMK AO2 SLP126 T01440078 10206 20144 51003
 
KOQU - N. Kingston/Quon, Rhode Island, USA
Distance from station: WSW 18mi, 29km
Updated: Wed, 16-Jun-2021 10:50pm EDT
NOT Current
Clear
Clear
 Wind from WNW
Wind: WNW 10 mph , 17 km/h
Temperature: 63°F , 17°C
Dew Point: 46°F , 8°C
Humidity: 56%
Barometer: 29.90 inHg , 1012.5 hPa
Clouds: Clear
Visibility: 10 miles , 16 km
2021/06/17 02:50 KOQU 170250Z 30009KT 10SM SKC 17/08 A2990 RMK LAST
KPYM - Plymouth, Massachusetts, USA
Distance from station: ENE 23mi, 37km
Updated: Thu, 17-Jun-2021 1:52am EDT
Clear
Clear
 Wind from W
Wind: W 3 mph , 6 km/h
Temperature: 57°F , 14°C
Dew Point: 46°F , 8°C
Humidity: 67%
Barometer: 29.90 inHg , 1012.5 hPa
Clouds: Clear
Visibility: 10 miles , 16 km
2021/06/17 05:52 KPYM 170552Z AUTO 27003KT 10SM CLR 14/08 A2990 RMK AO2 SLP123 T01390083 10194 20117 53002
 
KSFZ - Pawtucket, Rhode Island, USA
Distance from station: WNW 23mi, 38km
Updated: Thu, 17-Jun-2021 1:56am EDT
Clear
Clear
 Wind from NW
Wind: NW 6 mph , 9 km/h
Temperature: 55°F , 13°C
Dew Point: 46°F , 8°C
Humidity: 72%
Barometer: 29.92 inHg , 1013.2 hPa
Clouds: Clear
Visibility: 10 miles , 16 km
2021/06/17 05:56 KSFZ 170556Z AUTO 31005KT 10SM CLR 13/08 A2992 RMK AO2 SLP136 T01280078 10183 20117 50001 $
KOWD - Norwood, Massachusetts, USA
Distance from station: N 31mi, 50km
Updated: Thu, 17-Jun-2021 1:53am EDT
Mostly cloudy
Mostly cloudy
 Wind from calm
Wind: Calm
Temperature: 52°F , 11°C
Dew Point: 46°F , 8°C
Humidity: 82%
Barometer: 29.90 inHg , 1012.5 hPa
Clouds: Mostly cloudy
Visibility: 10 miles , 16 km
Cloud details: Mostly cloudy 9000 ft
2021/06/17 05:53 KOWD 170553Z AUTO 00000KT 10SM BKN090 11/08 A2990 RMK AO2 SLP125 T01060083 10206 20100 51005 $
 
KFMH - Falmouth/Otis Ab, Massachusetts, USA
Distance from station: ESE 32mi, 51km
Updated: Thu, 17-Jun-2021 1:45am EDT
Clear
Clear
 Wind from calm
Wind: Calm
Temperature: 54°F , 12°C
Dew Point: 54°F , 12°C
Humidity: 100%
Barometer: 29.90 inHg , 1012.5 hPa
Clouds: Clear
Visibility: 10 miles , 16 km
2021/06/17 05:45 KFMH 170545Z 00000KT 10SM CLR 12/12 A2990
KMQE - East Milton, Massachusetts, USA
Distance from station: N 33mi, 53km
Updated: Thu, 17-Jun-2021 1:51am EDT

 Wind from WNW
Wind: WNW 9 mph , 15 km/h
Temperature: 55°F , 13°C
Dew Point: 45°F , 7°C
Humidity: 67%
Barometer: 29.90 inHg , 1012.5 hPa
2021/06/17 05:51 KMQE 170551Z AUTO 29008KT 13/07 A2990 RMK AO1 SLP132 T01330072 10178 20133 53003
 
KGHG - Marshfield, Massachusetts, USA
Distance from station: NE 34mi, 55km
Updated: Thu, 17-Jun-2021 1:55am EDT
Clear
Clear
 Wind from W
Wind: W 5 mph , 7 km/h
Temperature: -40°F , -40°C
Wind Chill: -57°F , -49°C
Barometer: 29.89 inHg , 1012.2 hPa
Clouds: Clear
Visibility: 10 miles , 16 km
2021/06/17 05:55 KGHG 170555Z AUTO 26004KT 10SM CLR M40/ A2989 RMK AO2 PWINO TSNO
KMVY - Marthas Vineyard, Massachusetts, USA
Distance from station: SE 35mi, 56km
Updated: Thu, 17-Jun-2021 1:53am EDT
Clear
Clear
 
Temperature: 48°F , 9°C
Dew Point: 46°F , 8°C
Humidity: 94%
Clouds: Clear
Visibility: 10 miles , 16 km
2021/06/17 05:53 KMVY 170553Z AUTO 10SM CLR 09/08 RMK AO2 SLPNO T00890078 10178 20078 $
 
KBOS - Boston, Massachusetts, USA
Distance from station: N 44mi, 71km
Updated: Thu, 17-Jun-2021 1:54am EDT
Partly cloudy
Partly cloudy
 Wind from WNW
Wind: WNW 8 mph , 13 km/h
Temperature: 64°F , 18°C
Dew Point: 45°F , 7°C
Humidity: 49%
Barometer: 29.90 inHg , 1012.5 hPa
Clouds: Partly cloudy
Visibility: 10 miles , 16 km
Cloud details: Partly cloudy 7500 ft
2021/06/17 05:54 KBOS 170554Z 29007KT 10SM SCT075 18/07 A2990 RMK AO2 SLP124 T01780072 10222 20178 53006
KHYA - Hyannis, Massachusetts, USA
Distance from station: E 44mi, 71km
Updated: Thu, 17-Jun-2021 1:56am EDT

 Wind from calm
Wind: Calm
Temperature: 54°F , 12°C
Dew Point: 52°F , 11°C
Humidity: 94%
Barometer: 29.89 inHg , 1012.2 hPa
Visibility: 10 miles , 16 km
2021/06/17 05:56 KHYA 170556Z AUTO 00000KT 10SM 12/11 A2989 RMK AO2 SLP121 T01170106 10189 20117 53002 $
 
KWST - Westerly, Rhode Island, USA
Distance from station: SW 44mi, 71km
Updated: Thu, 17-Jun-2021 1:53am EDT
Clear
Clear
 Wind from W
Wind: W 5 mph , 7 km/h
Temperature: 55°F , 13°C
Dew Point: 45°F , 7°C
Humidity: 67%
Barometer: 29.93 inHg , 1013.5 hPa
Clouds: Clear
Visibility: 10 miles , 16 km
2021/06/17 05:53 KWST 170553Z AUTO 26004KT 10SM CLR 13/07 A2993 RMK AO2 SLP133 T01280067 10200 20117 50004
KBID - Block Island, Rhode Island, USA
Distance from station: SSW 46mi, 74km
Updated: Thu, 17-Jun-2021 1:56am EDT
Clear
Clear
 Wind from WNW
Wind: WNW 6 mph , 9 km/h
Temperature: 59°F , 15°C
Dew Point: 46°F , 8°C
Humidity: 63%
Barometer: 29.94 inHg , 1013.9 hPa
Clouds: Clear
Visibility: 10 miles , 16 km
2021/06/17 05:56 KBID 170556Z AUTO 29005KT 10SM CLR 15/08 A2994 RMK AO2 SLP137 T01500083 10183 20139 52003